Login to view products. 
Thursday, January 19, 2017 (02:10 UTC)
Fujairah International Airport
ICAO Code: OMFJ
IATA Code: FJR
  • METAR OMFJ 190200Z 31005KT 7000 SCT040 19/12 Q1018 A3008=
  • TAF OMFJ 182300Z 1900/2006 32007KT 7000 SCT040 TEMPO 1900/1904 5000 HZ BECMG 1904/1906 10008KT PROB30 TEMPO 1912/1918 5000 -SHRA FEW030TCU=